createdAt,value
2022-09-11T00:01:27.575Z,5.40
2022-09-11T00:03:57.413Z,5.35
2022-09-11T00:06:29.771Z,5.40
2022-09-11T00:09:01.095Z,5.18
2022-09-11T00:11:31.263Z,6.28
2022-09-11T00:13:58.712Z,5.28
2022-09-11T00:16:31.481Z,4.93
2022-09-11T00:19:00.437Z,5.55
2022-09-11T00:21:28.225Z,5.20
2022-09-11T00:23:55.588Z,5.95
2022-09-11T00:26:24.753Z,4.95
2022-09-11T00:28:52.450Z,6.38
2022-09-11T00:31:23.805Z,6.38
2022-09-11T00:33:51.731Z,5.45
2022-09-11T00:36:21.768Z,4.57
2022-09-11T00:38:49.489Z,4.90
2022-09-11T00:41:25.546Z,4.85
2022-09-11T00:44:02.650Z,6.13
2022-09-11T00:46:34.581Z,4.95
2022-09-11T00:49:07.735Z,5.70
2022-09-11T00:51:37.864Z,5.90
2022-09-11T00:54:05.172Z,5.65
2022-09-11T00:56:37.276Z,5.15
2022-09-11T00:59:05.876Z,4.75
2022-09-11T01:01:33.347Z,5.30
2022-09-11T01:04:04.101Z,5.05
2022-09-11T01:06:32.198Z,5.32
2022-09-11T01:09:01.941Z,6.63
2022-09-11T01:11:48.020Z,6.03
2022-09-11T01:14:49.612Z,5.28
2022-09-11T01:17:25.198Z,6.40
2022-09-11T01:20:16.600Z,5.68
2022-09-11T01:23:20.811Z,6.75
2022-09-11T01:26:15.458Z,5.70
2022-09-11T01:28:50.536Z,5.65
2022-09-11T01:31:21.912Z,6.78
2022-09-11T01:34:05.997Z,5.43
2022-09-11T01:36:39.128Z,4.85
2022-09-11T01:39:06.160Z,5.30
2022-09-11T01:41:45.215Z,4.85
2022-09-11T01:44:22.998Z,4.85
2022-09-11T01:46:53.321Z,4.88
2022-09-11T01:49:35.812Z,5.10
2022-09-11T01:52:10.572Z,3.58
2022-09-11T01:54:44.569Z,5.15
2022-09-11T01:57:25.441Z,5.18
2022-09-11T01:59:58.954Z,4.43
2022-09-11T02:02:33.332Z,4.72
2022-09-11T02:05:16.705Z,4.85
2022-09-11T02:07:48.402Z,4.30
2022-09-11T02:10:21.547Z,5.03
2022-09-11T02:13:14.061Z,5.05
2022-09-11T02:15:54.236Z,5.32
2022-09-11T02:18:43.313Z,4.63
2022-09-11T02:21:10.530Z,5.07
2022-09-11T02:23:39.895Z,4.10
2022-09-11T02:26:09.907Z,4.43
2022-09-11T02:28:37.439Z,5.00
2022-09-11T02:31:04.948Z,4.07
2022-09-11T02:33:36.061Z,5.38
2022-09-11T02:36:31.341Z,5.32
2022-09-11T02:39:19.526Z,5.55
2022-09-11T02:42:14.129Z,4.68
2022-09-11T02:44:55.877Z,4.45
2022-09-11T02:47:45.004Z,5.05
2022-09-11T02:50:40.801Z,4.68
2022-09-11T02:53:14.764Z,4.20
2022-09-11T02:55:46.306Z,4.38
2022-09-11T02:58:50.285Z,3.88
2022-09-11T03:01:17.749Z,5.20
2022-09-11T03:03:47.087Z,4.10
2022-09-11T03:06:20.572Z,4.72
2022-09-11T03:08:48.065Z,4.72
2022-09-11T03:11:15.908Z,3.85
2022-09-11T03:13:45.399Z,4.82
2022-09-11T03:16:14.602Z,5.25
2022-09-11T03:18:41.518Z,3.63
2022-09-11T03:21:11.446Z,4.35
2022-09-11T03:23:38.632Z,4.78
2022-09-11T03:26:05.534Z,4.68
2022-09-11T03:28:32.573Z,4.25
2022-09-11T03:30:59.515Z,4.95
2022-09-11T03:33:27.890Z,6.20
2022-09-11T03:35:54.817Z,3.83
2022-09-11T03:38:21.653Z,4.50
2022-09-11T03:40:48.603Z,4.20
2022-09-11T03:43:16.761Z,3.83
2022-09-11T03:45:44.886Z,3.55
2022-09-11T03:48:13.661Z,4.25
2022-09-11T03:50:41.177Z,4.13
2022-09-11T03:53:09.921Z,3.53
2022-09-11T03:55:37.496Z,3.70
2022-09-11T03:58:05.060Z,3.40
2022-09-11T04:00:32.234Z,4.05
2022-09-11T04:03:00.425Z,3.80
2022-09-11T04:05:42.973Z,3.80
2022-09-11T04:08:13.216Z,4.65
2022-09-11T04:10:43.373Z,5.07
2022-09-11T04:13:11.016Z,4.43
2022-09-11T04:15:38.186Z,4.43
2022-09-11T04:18:08.597Z,4.18
2022-09-11T04:20:39.842Z,4.35
2022-09-11T04:23:07.587Z,4.65
2022-09-11T04:25:34.457Z,3.70
2022-09-11T04:28:03.226Z,4.57
2022-09-11T04:30:30.105Z,4.78
2022-09-11T04:32:57.103Z,3.70
2022-09-11T04:35:24.288Z,4.07
2022-09-11T04:37:55.652Z,4.05
2022-09-11T04:40:23.110Z,4.00
2022-09-11T04:42:49.938Z,3.70
2022-09-11T04:45:16.910Z,4.32
2022-09-11T04:47:44.230Z,4.43
2022-09-11T04:50:12.911Z,3.75
2022-09-11T04:52:41.735Z,4.50
2022-09-11T04:55:09.696Z,4.38
2022-09-11T04:57:36.519Z,5.60
2022-09-11T05:00:05.764Z,3.85
2022-09-11T05:02:33.580Z,4.03
2022-09-11T05:05:00.575Z,4.68
2022-09-11T05:07:29.395Z,4.72
2022-09-11T05:09:56.617Z,4.57
2022-09-11T05:12:23.482Z,4.68
2022-09-11T05:14:51.238Z,4.32
2022-09-11T05:17:18.077Z,4.47
2022-09-11T05:19:45.148Z,3.53
2022-09-11T05:22:12.087Z,5.00
2022-09-11T05:24:43.903Z,4.60
2022-09-11T05:27:12.005Z,4.07
2022-09-11T05:29:39.220Z,4.10
2022-09-11T05:32:11.099Z,3.47
2022-09-11T05:34:37.987Z,6.05
2022-09-11T05:37:07.591Z,4.07
2022-09-11T05:39:40.174Z,4.85
2022-09-11T05:42:08.628Z,4.57
2022-09-11T05:44:38.384Z,4.43
2022-09-11T05:47:06.202Z,3.88
2022-09-11T05:49:33.138Z,4.30
2022-09-11T05:52:01.720Z,4.90
2022-09-11T05:54:30.554Z,3.92
2022-09-11T05:56:58.821Z,3.67
2022-09-11T05:59:27.270Z,3.65
2022-09-11T06:01:54.348Z,3.80
2022-09-11T06:04:34.124Z,3.40
2022-09-11T06:07:01.231Z,3.65
2022-09-11T06:09:29.256Z,3.78
2022-09-11T06:11:56.795Z,3.45
2022-09-11T06:14:23.764Z,3.28
2022-09-11T06:16:51.689Z,4.03
2022-09-11T06:19:19.169Z,3.28
2022-09-11T06:21:46.589Z,3.85
2022-09-11T06:24:47.502Z,3.75
2022-09-11T06:27:15.907Z,3.38
2022-09-11T06:29:45.100Z,4.63
2022-09-11T06:32:12.590Z,4.28
2022-09-11T06:34:40.108Z,3.83
2022-09-11T06:37:10.301Z,3.85
2022-09-11T06:39:37.193Z,3.63
2022-09-11T06:42:04.320Z,3.78
2022-09-11T06:44:35.189Z,4.13
2022-09-11T06:47:03.790Z,4.55
2022-09-11T06:49:32.115Z,3.58
2022-09-11T06:52:17.527Z,2.92
2022-09-11T06:54:53.805Z,3.17
2022-09-11T06:57:20.797Z,3.55
2022-09-11T06:59:47.640Z,5.35
2022-09-11T07:02:16.125Z,3.33
2022-09-11T07:04:44.586Z,3.28
2022-09-11T07:07:11.432Z,2.75
2022-09-11T07:09:38.769Z,3.47
2022-09-11T07:12:05.971Z,3.22
2022-09-11T07:14:34.138Z,2.88
2022-09-11T07:17:10.663Z,3.05
2022-09-11T07:19:39.081Z,2.90
2022-09-11T07:22:05.920Z,3.67
2022-09-11T07:24:34.017Z,2.20
2022-09-11T07:27:00.896Z,2.80
2022-09-11T07:29:32.267Z,3.50
2022-09-11T07:31:59.907Z,2.22
2022-09-11T07:34:27.660Z,2.25
2022-09-11T07:36:55.447Z,2.25
2022-09-11T07:39:25.345Z,2.35
2022-09-11T07:42:14.974Z,2.33
2022-09-11T07:44:43.917Z,2.38
2022-09-11T07:47:11.254Z,2.30
2022-09-11T07:49:42.697Z,2.15
2022-09-11T07:52:12.568Z,2.60
2022-09-11T07:54:48.080Z,2.10
2022-09-11T07:57:15.705Z,4.68
2022-09-11T07:59:42.635Z,2.25
2022-09-11T08:02:11.690Z,2.80
2022-09-11T08:04:38.849Z,2.30
2022-09-11T08:07:06.783Z,2.22
2022-09-11T08:09:34.856Z,2.25
2022-09-11T08:12:04.172Z,2.85
2022-09-11T08:14:32.782Z,2.20
2022-09-11T08:17:08.888Z,2.38
2022-09-11T08:19:37.446Z,2.85
2022-09-11T08:22:04.391Z,2.47
2022-09-11T08:24:35.819Z,2.30
2022-09-11T08:27:06.042Z,1.98
2022-09-11T08:29:35.578Z,1.98
2022-09-11T08:32:02.883Z,2.05
2022-09-11T08:34:32.456Z,2.35
2022-09-11T08:36:59.406Z,2.58
2022-09-11T08:39:28.763Z,2.35
2022-09-11T08:42:05.829Z,2.15
2022-09-11T08:44:48.652Z,2.30
2022-09-11T08:47:27.690Z,1.80
2022-09-11T08:50:03.809Z,1.77
2022-09-11T08:52:33.031Z,1.92
2022-09-11T08:55:00.966Z,2.20
2022-09-11T08:58:00.757Z,2.38
2022-09-11T09:00:40.526Z,2.30
2022-09-11T09:03:33.879Z,2.08
2022-09-11T09:06:28.374Z,2.22
2022-09-11T09:09:18.466Z,2.15
2022-09-11T09:11:56.077Z,2.92
2022-09-11T09:14:36.575Z,2.85
2022-09-11T09:17:16.961Z,2.00
2022-09-11T09:22:51.787Z,2.60
2022-09-11T09:25:25.489Z,2.60
2022-09-11T09:28:11.500Z,2.58
2022-09-11T09:30:59.864Z,2.63
2022-09-11T09:33:40.924Z,2.13
2022-09-11T09:36:20.896Z,3.05
2022-09-11T09:38:48.908Z,2.20
2022-09-11T09:41:54.371Z,2.22
2022-09-11T09:44:23.988Z,2.30
2022-09-11T09:46:54.062Z,2.70
2022-09-11T09:49:32.369Z,2.75
2022-09-11T09:52:05.290Z,2.70
2022-09-11T09:54:36.409Z,2.80
2022-09-11T09:57:10.359Z,2.70
2022-09-11T09:59:50.837Z,3.70
2022-09-11T10:05:32.523Z,1.92
2022-09-11T10:08:07.923Z,1.98
2022-09-11T10:10:39.804Z,2.22
2022-09-11T10:13:22.332Z,1.83
2022-09-11T10:15:51.011Z,2.38
2022-09-11T10:18:30.273Z,1.48
2022-09-11T10:21:24.666Z,2.10
2022-09-11T10:24:22.606Z,1.60
2022-09-11T10:26:53.205Z,1.50
2022-09-11T10:29:24.402Z,1.73
2022-09-11T10:31:56.831Z,2.35
2022-09-11T10:34:27.212Z,2.13
2022-09-11T10:39:24.624Z,2.72
2022-09-11T10:41:54.928Z,2.83
2022-09-11T10:47:23.186Z,1.85
2022-09-11T10:49:49.997Z,3.67
2022-09-11T10:52:22.203Z,2.45
2022-09-11T10:55:09.671Z,2.40
2022-09-11T10:57:55.246Z,2.35
2022-09-11T11:00:29.998Z,2.50
2022-09-11T11:03:06.874Z,2.05
2022-09-11T11:05:50.628Z,2.15
2022-09-11T11:08:46.325Z,2.45
2022-09-11T11:11:32.471Z,2.53
2022-09-11T11:14:28.904Z,1.70
2022-09-11T11:17:31.728Z,1.77
2022-09-11T11:19:58.663Z,2.05
2022-09-11T11:22:45.419Z,2.20
2022-09-11T11:25:36.398Z,2.17
2022-09-11T11:28:15.154Z,1.55
2022-09-11T11:31:06.549Z,1.65
2022-09-11T11:33:36.279Z,1.67
2022-09-11T11:36:30.678Z,1.23
2022-09-11T11:39:02.602Z,1.73
2022-09-11T11:41:59.098Z,1.92
2022-09-11T11:44:39.241Z,2.05
2022-09-11T11:47:10.338Z,2.00
2022-09-11T11:49:43.397Z,1.80
2022-09-11T11:52:18.094Z,2.15
2022-09-11T11:55:18.425Z,1.33
2022-09-11T11:57:59.508Z,1.98
2022-09-11T12:00:28.536Z,1.60
2022-09-11T12:03:01.561Z,1.60
2022-09-11T12:05:32.728Z,2.20
2022-09-11T12:07:59.981Z,1.70
2022-09-11T12:10:34.274Z,2.00
2022-09-11T12:13:06.562Z,2.35
2022-09-11T12:15:36.778Z,1.80
2022-09-11T12:18:03.640Z,2.28
2022-09-11T12:20:37.113Z,2.47
2022-09-11T12:23:05.822Z,1.83
2022-09-11T12:25:32.669Z,2.25
2022-09-11T12:28:29.239Z,2.17
2022-09-11T12:30:58.277Z,2.97
2022-09-11T12:33:43.658Z,1.83
2022-09-11T12:36:43.119Z,1.40
2022-09-11T12:39:24.874Z,2.88
2022-09-11T12:41:52.211Z,1.63
2022-09-11T12:44:53.091Z,2.85
2022-09-11T12:47:39.322Z,1.52
2022-09-11T12:50:14.432Z,1.67
2022-09-11T12:52:54.815Z,1.40
2022-09-11T12:57:55.099Z,1.92
2022-09-11T13:00:35.336Z,2.17
2022-09-11T13:03:04.727Z,2.10
2022-09-11T13:05:37.833Z,1.45
2022-09-11T13:08:16.778Z,1.30
2022-09-11T13:10:44.021Z,1.60
2022-09-11T13:13:43.514Z,1.40
2022-09-11T13:16:28.587Z,1.77
2022-09-11T13:19:17.251Z,1.52
2022-09-11T13:21:49.245Z,1.45
2022-09-11T13:24:32.211Z,1.65
2022-09-11T13:27:07.417Z,1.40
2022-09-11T13:29:37.425Z,1.70
2022-09-11T13:32:13.508Z,1.60
2022-09-11T13:34:45.552Z,1.98
2022-09-11T13:37:41.323Z,1.60
2022-09-11T13:40:18.151Z,1.25
2022-09-11T13:42:45.340Z,1.33
2022-09-11T13:45:17.978Z,1.60
2022-09-11T13:47:44.902Z,1.90
2022-09-11T13:50:15.359Z,1.45
2022-09-11T13:52:44.527Z,2.25
2022-09-11T13:55:27.080Z,1.75
2022-09-11T13:58:02.199Z,1.80
2022-09-11T14:00:44.946Z,2.63
2022-09-11T14:03:29.254Z,1.77
2022-09-11T14:06:01.459Z,1.80
2022-09-11T14:08:35.113Z,1.85
2022-09-11T14:11:11.387Z,1.30
2022-09-11T14:13:46.987Z,1.63
2022-09-11T14:16:13.875Z,1.60
2022-09-11T14:18:49.534Z,1.65
2022-09-11T14:21:19.795Z,1.70
2022-09-11T14:23:51.900Z,1.73
2022-09-11T14:26:24.232Z,1.55
2022-09-11T14:29:05.134Z,1.30
2022-09-11T14:31:40.594Z,2.28
2022-09-11T14:34:22.995Z,1.88
2022-09-11T14:36:50.100Z,1.98
2022-09-11T14:39:38.480Z,1.92
2022-09-11T14:42:21.649Z,1.80
2022-09-11T14:44:49.234Z,1.50
2022-09-11T14:47:19.125Z,2.33
2022-09-11T14:49:46.836Z,1.77
2022-09-11T14:52:19.031Z,1.40
2022-09-11T14:54:47.098Z,2.08
2022-09-11T14:57:20.353Z,2.25
2022-09-11T14:59:47.592Z,2.35
2022-09-11T15:02:17.091Z,1.52
2022-09-11T15:04:44.571Z,2.20
2022-09-11T15:07:12.659Z,1.70
2022-09-11T15:09:40.135Z,2.05
2022-09-11T15:12:09.563Z,1.80
2022-09-11T15:14:57.171Z,1.47
2022-09-11T15:17:25.246Z,1.50
2022-09-11T15:19:52.852Z,1.80
2022-09-11T15:22:19.957Z,1.75
2022-09-11T15:24:47.190Z,1.90
2022-09-11T15:27:15.113Z,2.20
2022-09-11T15:29:42.661Z,2.20
2022-09-11T15:32:10.565Z,2.10
2022-09-11T15:34:39.331Z,2.05
2022-09-11T15:37:06.412Z,2.38
2022-09-11T15:39:34.073Z,2.63
2022-09-11T15:42:01.993Z,1.90
2022-09-11T15:44:29.719Z,2.00
2022-09-11T15:46:58.496Z,2.63
2022-09-11T15:49:28.457Z,1.92
2022-09-11T15:51:56.435Z,2.50
2022-09-11T15:54:23.473Z,1.80
2022-09-11T15:56:51.865Z,2.58
2022-09-11T15:59:19.602Z,2.13
2022-09-11T16:01:46.552Z,2.70
2022-09-11T16:04:16.541Z,1.75
2022-09-11T16:06:45.814Z,2.47
2022-09-11T16:09:19.253Z,2.20
2022-09-11T16:11:47.978Z,1.77
2022-09-11T16:14:21.116Z,2.30
2022-09-11T16:16:48.260Z,1.52
2022-09-11T16:19:23.385Z,2.13
2022-09-11T16:21:50.290Z,1.70
2022-09-11T16:24:17.300Z,2.13
2022-09-11T16:26:46.099Z,2.13
2022-09-11T16:29:14.899Z,1.70
2022-09-11T16:31:42.625Z,1.90
2022-09-11T16:34:10.507Z,1.83
2022-09-11T16:36:40.447Z,1.88
2022-09-11T16:39:09.566Z,1.85
2022-09-11T16:41:37.347Z,1.83
2022-09-11T16:44:06.041Z,1.90
2022-09-11T16:46:33.443Z,2.22
2022-09-11T16:49:01.951Z,1.48
2022-09-11T16:51:29.745Z,1.80
2022-09-11T16:53:56.943Z,1.83
2022-09-11T16:56:25.805Z,1.83
2022-09-11T16:58:54.531Z,1.85
2022-09-11T17:01:26.588Z,1.58
2022-09-11T17:03:56.092Z,1.88
2022-09-11T17:06:29.336Z,2.00
2022-09-11T17:08:59.472Z,1.70
2022-09-11T17:11:27.885Z,1.40
2022-09-11T17:13:54.948Z,1.88
2022-09-11T17:16:26.028Z,1.45
2022-09-11T17:18:54.797Z,2.03
2022-09-11T17:21:25.716Z,1.63
2022-09-11T17:23:54.381Z,1.67
2022-09-11T17:26:22.273Z,1.70
2022-09-11T17:28:50.432Z,2.60
2022-09-11T17:31:19.428Z,2.08
2022-09-11T17:33:48.081Z,2.33
2022-09-11T17:36:17.932Z,2.03
2022-09-11T17:38:46.197Z,2.17
2022-09-11T17:41:14.344Z,1.60
2022-09-11T17:43:41.452Z,1.88
2022-09-11T17:46:15.060Z,1.67
2022-09-11T17:48:43.053Z,2.45
2022-09-11T17:51:20.129Z,1.38
2022-09-11T17:53:52.306Z,1.65
2022-09-11T17:56:26.113Z,1.73
2022-09-11T17:58:57.503Z,1.80
2022-09-11T18:01:26.098Z,1.75
2022-09-11T18:03:55.020Z,2.10
2022-09-11T18:06:34.583Z,2.10
2022-09-11T18:09:11.889Z,1.67
2022-09-11T18:11:43.405Z,1.65
2022-09-11T18:14:11.593Z,2.00
2022-09-11T18:16:38.559Z,1.85
2022-09-11T18:19:06.445Z,1.40
2022-09-11T18:21:35.378Z,1.70
2022-09-11T18:24:06.431Z,2.45
2022-09-11T18:26:39.463Z,2.00
2022-09-11T18:29:10.635Z,1.85
2022-09-11T18:31:42.636Z,2.38
2022-09-11T18:34:12.058Z,1.98
2022-09-11T18:36:39.002Z,1.63
2022-09-11T18:39:05.888Z,1.65
2022-09-11T18:41:37.216Z,2.03
2022-09-11T18:44:08.471Z,1.75
2022-09-11T18:46:37.499Z,2.47
2022-09-11T18:49:05.711Z,2.00
2022-09-11T18:51:33.783Z,1.85
2022-09-11T18:54:00.822Z,2.45
2022-09-11T18:56:29.423Z,1.55
2022-09-11T18:58:56.422Z,1.50
2022-09-11T19:01:25.925Z,1.80
2022-09-11T19:03:53.675Z,2.13
2022-09-11T19:06:23.211Z,1.98
2022-09-11T19:08:51.257Z,1.70
2022-09-11T19:11:21.866Z,1.80
2022-09-11T19:13:49.522Z,1.73
2022-09-11T19:16:18.481Z,2.08
2022-09-11T19:18:45.436Z,1.73
2022-09-11T19:21:18.378Z,1.83
2022-09-11T19:23:47.755Z,2.65
2022-09-11T19:26:17.883Z,1.40
2022-09-11T19:28:46.494Z,1.67
2022-09-11T19:31:15.321Z,2.15
2022-09-11T19:33:44.536Z,2.63
2022-09-11T19:36:16.796Z,1.73
2022-09-11T19:38:45.496Z,1.42
2022-09-11T19:41:15.020Z,1.48
2022-09-11T19:43:43.762Z,1.90
2022-09-11T19:46:19.658Z,1.55
2022-09-11T19:48:48.446Z,1.67
2022-09-11T19:51:21.617Z,2.22
2022-09-11T19:53:49.931Z,2.05
2022-09-11T19:56:17.874Z,1.77
2022-09-11T19:58:44.792Z,2.35
2022-09-11T20:01:14.735Z,1.70
2022-09-11T20:03:44.414Z,1.95
2022-09-11T20:06:13.217Z,1.88
2022-09-11T20:08:45.510Z,1.95
2022-09-11T20:11:16.005Z,2.25
2022-09-11T20:16:20.023Z,1.92
2022-09-11T20:18:47.172Z,2.05
2022-09-11T20:21:16.244Z,1.92
2022-09-11T20:23:44.676Z,2.30
2022-09-11T20:26:17.498Z,2.15
2022-09-11T20:31:28.257Z,2.47
2022-09-11T20:33:55.214Z,2.58
2022-09-11T20:36:23.564Z,1.92
2022-09-11T20:38:52.272Z,2.28
2022-09-11T20:41:23.198Z,2.47
2022-09-11T20:43:50.358Z,2.20
2022-09-11T20:46:18.828Z,2.80
2022-09-11T20:48:52.930Z,2.95
2022-09-11T20:51:21.696Z,2.53
2022-09-11T20:53:49.106Z,2.10
2022-09-11T20:56:19.573Z,2.28
2022-09-11T21:01:17.730Z,1.95
2022-09-11T21:03:49.687Z,2.72
2022-09-11T21:06:20.000Z,2.08
2022-09-11T21:08:52.103Z,1.85
2022-09-11T21:11:18.930Z,1.95
2022-09-11T21:13:46.027Z,2.47
2022-09-11T21:16:14.566Z,1.85
2022-09-11T21:18:46.701Z,1.80
2022-09-11T21:21:13.596Z,1.80
2022-09-11T21:23:40.509Z,2.35
2022-09-11T21:26:12.303Z,1.83
2022-09-11T21:28:39.531Z,2.00
2022-09-11T21:31:06.592Z,2.25
2022-09-11T21:33:34.622Z,2.60
2022-09-11T21:36:02.106Z,1.83
2022-09-11T21:38:29.585Z,1.80
2022-09-11T21:41:01.759Z,2.35
2022-09-11T21:43:29.505Z,2.22
2022-09-11T21:45:56.505Z,3.00
2022-09-11T21:48:24.206Z,2.30
2022-09-11T21:50:51.496Z,3.10
2022-09-11T21:53:19.575Z,2.33
2022-09-11T21:55:50.837Z,2.45
2022-09-11T21:58:20.922Z,2.65
2022-09-11T22:00:48.819Z,2.65
2022-09-11T22:03:17.964Z,2.25
2022-09-11T22:05:49.166Z,2.10
2022-09-11T22:08:17.886Z,2.35
2022-09-11T22:10:47.035Z,2.28
2022-09-11T22:13:14.289Z,2.50
2022-09-11T22:15:47.225Z,3.13
2022-09-11T22:18:14.601Z,2.92
2022-09-11T22:20:42.454Z,2.47
2022-09-11T22:23:14.740Z,1.77
2022-09-11T22:25:41.655Z,2.53
2022-09-11T22:28:08.560Z,2.72
2022-09-11T22:30:35.763Z,3.25
2022-09-11T22:33:02.619Z,2.75
2022-09-11T22:35:29.439Z,2.58
2022-09-11T22:37:56.271Z,2.53
2022-09-11T22:40:23.098Z,3.28
2022-09-11T22:42:50.036Z,2.65
2022-09-11T22:45:17.181Z,4.28
2022-09-11T22:47:44.099Z,2.53
2022-09-11T22:50:11.165Z,2.70
2022-09-11T22:52:38.063Z,2.90
2022-09-11T22:55:06.348Z,2.63
2022-09-11T22:57:35.370Z,3.20
2022-09-11T23:00:04.996Z,2.60
2022-09-11T23:02:31.951Z,3.65
2022-09-11T23:05:17.535Z,3.17
2022-09-11T23:07:44.901Z,3.40
2022-09-11T23:10:11.877Z,2.80
2022-09-11T23:12:38.936Z,2.92
2022-09-11T23:15:06.709Z,2.67
2022-09-11T23:17:33.788Z,2.85
2022-09-11T23:20:00.637Z,3.03
2022-09-11T23:22:27.542Z,3.85
2022-09-11T23:24:54.651Z,2.95
2022-09-11T23:27:21.509Z,2.60
2022-09-11T23:29:48.323Z,2.85
2022-09-11T23:32:15.236Z,2.92
2022-09-11T23:34:42.065Z,3.88
2022-09-11T23:37:08.953Z,3.17
2022-09-11T23:39:35.785Z,2.60
2022-09-11T23:42:02.656Z,3.08
2022-09-11T23:44:29.470Z,2.85
2022-09-11T23:46:57.234Z,2.60
2022-09-11T23:49:24.042Z,3.10
2022-09-11T23:51:50.961Z,3.00
2022-09-11T23:54:17.767Z,2.95
2022-09-11T23:56:44.774Z,3.72
2022-09-11T23:59:11.740Z,2.50
